sensor_id;sensor_type;location;lat;lon;timestamp;P1;durP1;ratioP1;P2;durP2;ratioP2
18360;SDS011;9308;48.550;9.108;2023-05-20T00:00:48;8.40;;;7.60;;
18360;SDS011;9308;48.550;9.108;2023-05-20T00:03:15;9.00;;;8.30;;
18360;SDS011;9308;48.550;9.108;2023-05-20T00:05:40;9.73;;;8.93;;
18360;SDS011;9308;48.550;9.108;2023-05-20T00:08:06;8.00;;;7.40;;
18360;SDS011;9308;48.550;9.108;2023-05-20T00:10:36;8.97;;;8.20;;
18360;SDS011;9308;48.550;9.108;2023-05-20T00:13:02;10.73;;;7.40;;
18360;SDS011;9308;48.550;9.108;2023-05-20T00:15:28;8.20;;;7.50;;
18360;SDS011;9308;48.550;9.108;2023-05-20T00:17:53;7.73;;;7.03;;
18360;SDS011;9308;48.550;9.108;2023-05-20T00:20:20;7.43;;;6.83;;
18360;SDS011;9308;48.550;9.108;2023-05-20T00:22:45;7.83;;;7.03;;
18360;SDS011;9308;48.550;9.108;2023-05-20T00:25:11;8.53;;;7.73;;
18360;SDS011;9308;48.550;9.108;2023-05-20T00:27:41;7.47;;;6.77;;
18360;SDS011;9308;48.550;9.108;2023-05-20T00:30:07;6.90;;;6.40;;
18360;SDS011;9308;48.550;9.108;2023-05-20T00:32:33;7.70;;;6.90;;
18360;SDS011;9308;48.550;9.108;2023-05-20T00:34:59;7.50;;;6.63;;
18360;SDS011;9308;48.550;9.108;2023-05-20T00:37:25;8.93;;;6.90;;
18360;SDS011;9308;48.550;9.108;2023-05-20T00:39:51;11.10;;;7.03;;
18360;SDS011;9308;48.550;9.108;2023-05-20T00:42:20;7.70;;;6.90;;
18360;SDS011;9308;48.550;9.108;2023-05-20T00:44:46;7.10;;;6.50;;
18360;SDS011;9308;48.550;9.108;2023-05-20T00:47:11;7.23;;;6.63;;
18360;SDS011;9308;48.550;9.108;2023-05-20T00:49:38;7.57;;;6.20;;
18360;SDS011;9308;48.550;9.108;2023-05-20T00:52:03;7.33;;;6.63;;
18360;SDS011;9308;48.550;9.108;2023-05-20T00:54:29;7.33;;;6.73;;
18360;SDS011;9308;48.550;9.108;2023-05-20T00:56:55;6.70;;;6.20;;
18360;SDS011;9308;48.550;9.108;2023-05-20T00:59:21;6.27;;;5.77;;
18360;SDS011;9308;48.550;9.108;2023-05-20T01:01:47;7.43;;;6.80;;
18360;SDS011;9308;48.550;9.108;2023-05-20T01:04:12;7.10;;;6.50;;
18360;SDS011;9308;48.550;9.108;2023-05-20T01:06:37;7.37;;;6.67;;
18360;SDS011;9308;48.550;9.108;2023-05-20T01:09:03;7.20;;;6.43;;
18360;SDS011;9308;48.550;9.108;2023-05-20T01:11:30;8.27;;;7.60;;
18360;SDS011;9308;48.550;9.108;2023-05-20T01:14:05;6.97;;;6.37;;
18360;SDS011;9308;48.550;9.108;2023-05-20T01:16:32;7.53;;;6.73;;
18360;SDS011;9308;48.550;9.108;2023-05-20T01:19:00;7.20;;;6.70;;
18360;SDS011;9308;48.550;9.108;2023-05-20T01:21:29;7.30;;;6.70;;
18360;SDS011;9308;48.550;9.108;2023-05-20T01:23:55;8.13;;;7.30;;
18360;SDS011;9308;48.550;9.108;2023-05-20T01:26:20;7.83;;;7.13;;
18360;SDS011;9308;48.550;9.108;2023-05-20T01:28:50;8.17;;;7.20;;
18360;SDS011;9308;48.550;9.108;2023-05-20T01:31:20;7.30;;;6.70;;
18360;SDS011;9308;48.550;9.108;2023-05-20T01:33:49;7.63;;;6.80;;
18360;SDS011;9308;48.550;9.108;2023-05-20T01:36:19;7.10;;;6.40;;
18360;SDS011;9308;48.550;9.108;2023-05-20T01:38:45;7.83;;;6.67;;
18360;SDS011;9308;48.550;9.108;2023-05-20T01:41:12;6.60;;;6.00;;
18360;SDS011;9308;48.550;9.108;2023-05-20T01:43:38;7.40;;;6.63;;
18360;SDS011;9308;48.550;9.108;2023-05-20T01:46:04;6.60;;;6.10;;
18360;SDS011;9308;48.550;9.108;2023-05-20T01:48:30;6.33;;;5.60;;
18360;SDS011;9308;48.550;9.108;2023-05-20T01:50:56;9.53;;;6.83;;
18360;SDS011;9308;48.550;9.108;2023-05-20T01:53:21;8.40;;;6.47;;
18360;SDS011;9308;48.550;9.108;2023-05-20T01:55:47;8.40;;;6.73;;
18360;SDS011;9308;48.550;9.108;2023-05-20T01:58:12;7.13;;;6.53;;
18360;SDS011;9308;48.550;9.108;2023-05-20T02:00:38;6.90;;;6.50;;
18360;SDS011;9308;48.550;9.108;2023-05-20T02:03:03;7.87;;;7.10;;
18360;SDS011;9308;48.550;9.108;2023-05-20T02:05:28;7.77;;;6.50;;
18360;SDS011;9308;48.550;9.108;2023-05-20T02:07:54;7.13;;;6.47;;
18360;SDS011;9308;48.550;9.108;2023-05-20T02:10:20;7.27;;;6.67;;
18360;SDS011;9308;48.550;9.108;2023-05-20T02:12:45;8.10;;;7.37;;
18360;SDS011;9308;48.550;9.108;2023-05-20T02:15:12;8.00;;;7.30;;
18360;SDS011;9308;48.550;9.108;2023-05-20T02:17:37;6.83;;;6.23;;
18360;SDS011;9308;48.550;9.108;2023-05-20T02:20:04;7.60;;;6.90;;
18360;SDS011;9308;48.550;9.108;2023-05-20T02:22:31;6.33;;;5.80;;
18360;SDS011;9308;48.550;9.108;2023-05-20T02:24:57;6.63;;;6.00;;
18360;SDS011;9308;48.550;9.108;2023-05-20T02:27:22;7.47;;;6.77;;
18360;SDS011;9308;48.550;9.108;2023-05-20T02:29:48;7.40;;;6.67;;
18360;SDS011;9308;48.550;9.108;2023-05-20T02:32:13;7.10;;;6.50;;
18360;SDS011;9308;48.550;9.108;2023-05-20T02:34:39;8.43;;;7.47;;
18360;SDS011;9308;48.550;9.108;2023-05-20T02:37:04;8.27;;;7.47;;
18360;SDS011;9308;48.550;9.108;2023-05-20T02:39:29;7.07;;;6.47;;
18360;SDS011;9308;48.550;9.108;2023-05-20T02:41:55;7.20;;;6.50;;
18360;SDS011;9308;48.550;9.108;2023-05-20T02:44:21;7.80;;;6.80;;
18360;SDS011;9308;48.550;9.108;2023-05-20T02:46:46;7.40;;;6.80;;
18360;SDS011;9308;48.550;9.108;2023-05-20T02:49:11;7.63;;;6.93;;
18360;SDS011;9308;48.550;9.108;2023-05-20T02:51:37;8.80;;;7.40;;
18360;SDS011;9308;48.550;9.108;2023-05-20T02:54:04;8.07;;;7.37;;
18360;SDS011;9308;48.550;9.108;2023-05-20T02:56:29;7.73;;;7.03;;
18360;SDS011;9308;48.550;9.108;2023-05-20T02:58:56;8.73;;;7.93;;
18360;SDS011;9308;48.550;9.108;2023-05-20T03:01:22;8.30;;;7.10;;
18360;SDS011;9308;48.550;9.108;2023-05-20T03:03:47;8.27;;;7.43;;
18360;SDS011;9308;48.550;9.108;2023-05-20T03:06:13;8.03;;;7.33;;
18360;SDS011;9308;48.550;9.108;2023-05-20T03:08:38;7.97;;;7.27;;
18360;SDS011;9308;48.550;9.108;2023-05-20T03:11:04;8.77;;;8.07;;
18360;SDS011;9308;48.550;9.108;2023-05-20T03:13:29;8.20;;;7.50;;
18360;SDS011;9308;48.550;9.108;2023-05-20T03:15:55;7.83;;;7.20;;
18360;SDS011;9308;48.550;9.108;2023-05-20T03:18:20;7.70;;;6.70;;
18360;SDS011;9308;48.550;9.108;2023-05-20T03:20:46;7.70;;;7.10;;
18360;SDS011;9308;48.550;9.108;2023-05-20T03:23:11;6.87;;;6.30;;
18360;SDS011;9308;48.550;9.108;2023-05-20T03:25:37;7.87;;;7.13;;
18360;SDS011;9308;48.550;9.108;2023-05-20T03:28:05;8.10;;;7.40;;
18360;SDS011;9308;48.550;9.108;2023-05-20T03:30:30;7.43;;;6.73;;
18360;SDS011;9308;48.550;9.108;2023-05-20T03:32:56;7.93;;;7.33;;
18360;SDS011;9308;48.550;9.108;2023-05-20T03:35:22;7.47;;;6.87;;
18360;SDS011;9308;48.550;9.108;2023-05-20T03:37:48;8.47;;;7.63;;
18360;SDS011;9308;48.550;9.108;2023-05-20T03:40:15;8.37;;;7.67;;
18360;SDS011;9308;48.550;9.108;2023-05-20T03:42:41;9.40;;;6.70;;
18360;SDS011;9308;48.550;9.108;2023-05-20T03:45:07;7.80;;;7.10;;
18360;SDS011;9308;48.550;9.108;2023-05-20T03:47:32;8.53;;;7.70;;
18360;SDS011;9308;48.550;9.108;2023-05-20T03:49:58;9.67;;;8.70;;
18360;SDS011;9308;48.550;9.108;2023-05-20T03:52:23;7.53;;;6.83;;
18360;SDS011;9308;48.550;9.108;2023-05-20T03:54:49;8.43;;;7.70;;
18360;SDS011;9308;48.550;9.108;2023-05-20T03:57:14;8.03;;;7.37;;
18360;SDS011;9308;48.550;9.108;2023-05-20T03:59:40;7.93;;;7.33;;
18360;SDS011;9308;48.550;9.108;2023-05-20T04:02:06;7.20;;;6.60;;
18360;SDS011;9308;48.550;9.108;2023-05-20T04:04:31;8.53;;;7.83;;
18360;SDS011;9308;48.550;9.108;2023-05-20T04:06:58;7.77;;;7.10;;
18360;SDS011;9308;48.550;9.108;2023-05-20T04:09:29;8.17;;;7.37;;
18360;SDS011;9308;48.550;9.108;2023-05-20T04:11:54;7.27;;;6.70;;
18360;SDS011;9308;48.550;9.108;2023-05-20T04:14:20;8.00;;;7.30;;
18360;SDS011;9308;48.550;9.108;2023-05-20T04:16:45;10.50;;;7.83;;
18360;SDS011;9308;48.550;9.108;2023-05-20T04:19:11;8.80;;;8.00;;
18360;SDS011;9308;48.550;9.108;2023-05-20T04:21:36;8.33;;;7.63;;
18360;SDS011;9308;48.550;9.108;2023-05-20T04:24:03;8.30;;;7.60;;
18360;SDS011;9308;48.550;9.108;2023-05-20T04:26:29;8.13;;;7.53;;
18360;SDS011;9308;48.550;9.108;2023-05-20T04:28:55;8.30;;;7.70;;
18360;SDS011;9308;48.550;9.108;2023-05-20T04:31:26;8.93;;;8.10;;
18360;SDS011;9308;48.550;9.108;2023-05-20T04:33:54;7.37;;;6.77;;
18360;SDS011;9308;48.550;9.108;2023-05-20T04:36:19;8.30;;;7.60;;
18360;SDS011;9308;48.550;9.108;2023-05-20T04:38:46;8.30;;;7.60;;
18360;SDS011;9308;48.550;9.108;2023-05-20T04:41:12;8.40;;;7.70;;
18360;SDS011;9308;48.550;9.108;2023-05-20T04:43:38;8.60;;;7.80;;
18360;SDS011;9308;48.550;9.108;2023-05-20T04:46:04;9.03;;;8.23;;
18360;SDS011;9308;48.550;9.108;2023-05-20T04:48:32;8.03;;;7.33;;
18360;SDS011;9308;48.550;9.108;2023-05-20T04:50:58;8.80;;;8.10;;
18360;SDS011;9308;48.550;9.108;2023-05-20T04:53:24;7.80;;;7.17;;
18360;SDS011;9308;48.550;9.108;2023-05-20T04:55:49;8.20;;;7.47;;
18360;SDS011;9308;48.550;9.108;2023-05-20T04:58:18;8.30;;;7.60;;
18360;SDS011;9308;48.550;9.108;2023-05-20T05:00:48;8.20;;;7.50;;
18360;SDS011;9308;48.550;9.108;2023-05-20T05:03:14;7.83;;;7.13;;
18360;SDS011;9308;48.550;9.108;2023-05-20T05:05:40;7.93;;;7.33;;
18360;SDS011;9308;48.550;9.108;2023-05-20T05:08:06;7.93;;;7.13;;
18360;SDS011;9308;48.550;9.108;2023-05-20T05:10:33;8.10;;;7.37;;
18360;SDS011;9308;48.550;9.108;2023-05-20T05:12:59;7.50;;;6.90;;
18360;SDS011;9308;48.550;9.108;2023-05-20T05:15:25;8.43;;;7.60;;
18360;SDS011;9308;48.550;9.108;2023-05-20T05:17:51;8.00;;;7.30;;
18360;SDS011;9308;48.550;9.108;2023-05-20T05:20:16;8.20;;;7.50;;
18360;SDS011;9308;48.550;9.108;2023-05-20T05:22:42;8.30;;;7.57;;
18360;SDS011;9308;48.550;9.108;2023-05-20T05:25:08;7.87;;;7.27;;
18360;SDS011;9308;48.550;9.108;2023-05-20T05:27:35;10.23;;;7.50;;
18360;SDS011;9308;48.550;9.108;2023-05-20T05:30:00;7.57;;;6.87;;
18360;SDS011;9308;48.550;9.108;2023-05-20T05:32:27;7.37;;;6.67;;
18360;SDS011;9308;48.550;9.108;2023-05-20T05:34:52;7.83;;;7.23;;
18360;SDS011;9308;48.550;9.108;2023-05-20T05:37:18;8.47;;;7.57;;
18360;SDS011;9308;48.550;9.108;2023-05-20T05:39:43;7.87;;;7.10;;
18360;SDS011;9308;48.550;9.108;2023-05-20T05:42:09;7.57;;;6.97;;
18360;SDS011;9308;48.550;9.108;2023-05-20T05:44:34;8.20;;;7.50;;
18360;SDS011;9308;48.550;9.108;2023-05-20T05:47:00;8.50;;;7.90;;
18360;SDS011;9308;48.550;9.108;2023-05-20T05:49:25;8.40;;;7.60;;
18360;SDS011;9308;48.550;9.108;2023-05-20T05:51:51;8.17;;;7.47;;
18360;SDS011;9308;48.550;9.108;2023-05-20T05:54:16;8.53;;;6.63;;
18360;SDS011;9308;48.550;9.108;2023-05-20T05:56:42;8.43;;;7.73;;
18360;SDS011;9308;48.550;9.108;2023-05-20T05:59:07;9.87;;;7.67;;
18360;SDS011;9308;48.550;9.108;2023-05-20T06:01:33;8.50;;;7.73;;
18360;SDS011;9308;48.550;9.108;2023-05-20T06:03:58;7.17;;;6.60;;
18360;SDS011;9308;48.550;9.108;2023-05-20T06:06:24;8.67;;;7.87;;
18360;SDS011;9308;48.550;9.108;2023-05-20T06:08:50;7.93;;;7.13;;
18360;SDS011;9308;48.550;9.108;2023-05-20T06:11:15;8.37;;;7.70;;
18360;SDS011;9308;48.550;9.108;2023-05-20T06:13:41;10.23;;;8.90;;
18360;SDS011;9308;48.550;9.108;2023-05-20T06:16:06;8.47;;;7.67;;
18360;SDS011;9308;48.550;9.108;2023-05-20T06:18:32;8.00;;;7.30;;
18360;SDS011;9308;48.550;9.108;2023-05-20T06:20:57;8.57;;;7.87;;
18360;SDS011;9308;48.550;9.108;2023-05-20T06:23:24;8.43;;;7.73;;
18360;SDS011;9308;48.550;9.108;2023-05-20T06:25:50;12.73;;;8.50;;
18360;SDS011;9308;48.550;9.108;2023-05-20T06:28:15;8.87;;;7.97;;
18360;SDS011;9308;48.550;9.108;2023-05-20T06:30:41;8.60;;;7.90;;
18360;SDS011;9308;48.550;9.108;2023-05-20T06:33:06;10.40;;;7.80;;
18360;SDS011;9308;48.550;9.108;2023-05-20T06:35:32;8.67;;;7.97;;
18360;SDS011;9308;48.550;9.108;2023-05-20T06:38:00;8.77;;;7.97;;
18360;SDS011;9308;48.550;9.108;2023-05-20T06:40:29;9.00;;;8.20;;
18360;SDS011;9308;48.550;9.108;2023-05-20T06:42:54;8.63;;;7.73;;
18360;SDS011;9308;48.550;9.108;2023-05-20T06:45:20;9.20;;;8.50;;
18360;SDS011;9308;48.550;9.108;2023-05-20T06:47:46;7.80;;;7.20;;
18360;SDS011;9308;48.550;9.108;2023-05-20T06:50:13;10.30;;;8.30;;
18360;SDS011;9308;48.550;9.108;2023-05-20T06:52:38;8.73;;;7.97;;
18360;SDS011;9308;48.550;9.108;2023-05-20T06:55:04;9.10;;;8.00;;
18360;SDS011;9308;48.550;9.108;2023-05-20T06:57:30;9.60;;;8.27;;
18360;SDS011;9308;48.550;9.108;2023-05-20T06:59:55;8.50;;;7.90;;
18360;SDS011;9308;48.550;9.108;2023-05-20T07:02:21;8.70;;;7.90;;
18360;SDS011;9308;48.550;9.108;2023-05-20T07:04:47;8.80;;;8.00;;
18360;SDS011;9308;48.550;9.108;2023-05-20T07:07:12;8.40;;;7.70;;
18360;SDS011;9308;48.550;9.108;2023-05-20T07:09:38;8.53;;;7.73;;
18360;SDS011;9308;48.550;9.108;2023-05-20T07:12:03;8.93;;;8.23;;
18360;SDS011;9308;48.550;9.108;2023-05-20T07:14:29;7.70;;;6.90;;
18360;SDS011;9308;48.550;9.108;2023-05-20T07:16:54;8.83;;;8.10;;
18360;SDS011;9308;48.550;9.108;2023-05-20T07:19:19;8.10;;;7.30;;
18360;SDS011;9308;48.550;9.108;2023-05-20T07:21:45;9.43;;;8.40;;
18360;SDS011;9308;48.550;9.108;2023-05-20T07:24:10;8.30;;;7.50;;
18360;SDS011;9308;48.550;9.108;2023-05-20T07:26:36;9.53;;;8.73;;
18360;SDS011;9308;48.550;9.108;2023-05-20T07:29:02;10.37;;;8.70;;
18360;SDS011;9308;48.550;9.108;2023-05-20T07:31:28;9.17;;;8.37;;
18360;SDS011;9308;48.550;9.108;2023-05-20T07:33:54;9.13;;;8.33;;
18360;SDS011;9308;48.550;9.108;2023-05-20T07:36:19;9.50;;;8.70;;
18360;SDS011;9308;48.550;9.108;2023-05-20T07:38:44;8.70;;;8.00;;
18360;SDS011;9308;48.550;9.108;2023-05-20T07:41:10;9.83;;;8.73;;
18360;SDS011;9308;48.550;9.108;2023-05-20T07:43:36;9.20;;;8.40;;
18360;SDS011;9308;48.550;9.108;2023-05-20T07:46:01;10.10;;;9.07;;
18360;SDS011;9308;48.550;9.108;2023-05-20T07:48:27;10.27;;;9.37;;
18360;SDS011;9308;48.550;9.108;2023-05-20T07:50:53;10.40;;;9.50;;
18360;SDS011;9308;48.550;9.108;2023-05-20T07:53:21;9.90;;;9.10;;
18360;SDS011;9308;48.550;9.108;2023-05-20T07:55:47;11.20;;;10.20;;
18360;SDS011;9308;48.550;9.108;2023-05-20T07:58:12;10.43;;;9.53;;
18360;SDS011;9308;48.550;9.108;2023-05-20T08:00:38;11.53;;;10.53;;
18360;SDS011;9308;48.550;9.108;2023-05-20T08:03:03;11.73;;;10.67;;
18360;SDS011;9308;48.550;9.108;2023-05-20T08:05:28;10.60;;;9.73;;
18360;SDS011;9308;48.550;9.108;2023-05-20T08:07:54;10.83;;;9.83;;
18360;SDS011;9308;48.550;9.108;2023-05-20T08:10:19;10.80;;;9.70;;
18360;SDS011;9308;48.550;9.108;2023-05-20T08:12:45;8.93;;;8.03;;
18360;SDS011;9308;48.550;9.108;2023-05-20T08:15:10;11.00;;;10.10;;
18360;SDS011;9308;48.550;9.108;2023-05-20T08:17:36;12.17;;;10.87;;
18360;SDS011;9308;48.550;9.108;2023-05-20T08:20:02;10.00;;;9.10;;
18360;SDS011;9308;48.550;9.108;2023-05-20T08:22:29;9.20;;;8.40;;
18360;SDS011;9308;48.550;9.108;2023-05-20T08:24:55;10.03;;;9.03;;
18360;SDS011;9308;48.550;9.108;2023-05-20T08:27:21;10.57;;;9.57;;
18360;SDS011;9308;48.550;9.108;2023-05-20T08:29:46;10.40;;;9.40;;
18360;SDS011;9308;48.550;9.108;2023-05-20T08:32:12;10.20;;;9.30;;
18360;SDS011;9308;48.550;9.108;2023-05-20T08:34:37;8.93;;;8.03;;
18360;SDS011;9308;48.550;9.108;2023-05-20T08:37:03;9.83;;;8.93;;
18360;SDS011;9308;48.550;9.108;2023-05-20T08:39:28;8.77;;;8.07;;
18360;SDS011;9308;48.550;9.108;2023-05-20T08:41:54;10.13;;;9.10;;
18360;SDS011;9308;48.550;9.108;2023-05-20T08:44:19;8.47;;;7.77;;
18360;SDS011;9308;48.550;9.108;2023-05-20T08:46:46;8.53;;;7.83;;
18360;SDS011;9308;48.550;9.108;2023-05-20T08:49:12;8.40;;;7.60;;
18360;SDS011;9308;48.550;9.108;2023-05-20T08:51:37;8.57;;;7.87;;
18360;SDS011;9308;48.550;9.108;2023-05-20T08:54:04;9.33;;;8.53;;
18360;SDS011;9308;48.550;9.108;2023-05-20T08:56:32;8.80;;;8.10;;
18360;SDS011;9308;48.550;9.108;2023-05-20T08:58:58;8.97;;;8.17;;
18360;SDS011;9308;48.550;9.108;2023-05-20T09:01:24;8.77;;;8.07;;
18360;SDS011;9308;48.550;9.108;2023-05-20T09:03:52;7.67;;;6.97;;
18360;SDS011;9308;48.550;9.108;2023-05-20T09:06:17;9.50;;;8.50;;
18360;SDS011;9308;48.550;9.108;2023-05-20T09:08:49;16.03;;;8.60;;
18360;SDS011;9308;48.550;9.108;2023-05-20T09:11:16;9.63;;;8.73;;
18360;SDS011;9308;48.550;9.108;2023-05-20T09:13:41;8.93;;;8.13;;
18360;SDS011;9308;48.550;9.108;2023-05-20T09:16:08;8.47;;;7.77;;
18360;SDS011;9308;48.550;9.108;2023-05-20T09:18:37;9.00;;;8.30;;
18360;SDS011;9308;48.550;9.108;2023-05-20T09:21:04;8.90;;;8.00;;
18360;SDS011;9308;48.550;9.108;2023-05-20T09:23:31;8.97;;;8.17;;
18360;SDS011;9308;48.550;9.108;2023-05-20T09:25:59;8.70;;;7.97;;
18360;SDS011;9308;48.550;9.108;2023-05-20T09:28:26;8.30;;;7.60;;
18360;SDS011;9308;48.550;9.108;2023-05-20T09:30:57;8.10;;;7.40;;
18360;SDS011;9308;48.550;9.108;2023-05-20T09:33:26;8.47;;;7.67;;
18360;SDS011;9308;48.550;9.108;2023-05-20T09:35:52;8.13;;;7.50;;
18360;SDS011;9308;48.550;9.108;2023-05-20T09:38:18;8.33;;;7.60;;
18360;SDS011;9308;48.550;9.108;2023-05-20T09:40:44;8.60;;;7.90;;
18360;SDS011;9308;48.550;9.108;2023-05-20T09:43:13;8.50;;;7.77;;
18360;SDS011;9308;48.550;9.108;2023-05-20T09:45:39;8.70;;;8.00;;
18360;SDS011;9308;48.550;9.108;2023-05-20T09:48:05;12.00;;;9.83;;
18360;SDS011;9308;48.550;9.108;2023-05-20T09:50:32;10.90;;;9.80;;
18360;SDS011;9308;48.550;9.108;2023-05-20T09:53:03;8.53;;;7.83;;
18360;SDS011;9308;48.550;9.108;2023-05-20T09:55:29;10.67;;;9.57;;
18360;SDS011;9308;48.550;9.108;2023-05-20T09:57:55;10.40;;;9.30;;
18360;SDS011;9308;48.550;9.108;2023-05-20T10:00:20;12.33;;;10.27;;
18360;SDS011;9308;48.550;9.108;2023-05-20T10:02:47;8.77;;;7.97;;
18360;SDS011;9308;48.550;9.108;2023-05-20T10:05:18;8.23;;;7.50;;
18360;SDS011;9308;48.550;9.108;2023-05-20T10:20:44;16.07;;;13.67;;
18360;SDS011;9308;48.550;9.108;2023-05-20T10:23:19;17.33;;;11.50;;
18360;SDS011;9308;48.550;9.108;2023-05-20T10:25:51;8.90;;;8.20;;
18360;SDS011;9308;48.550;9.108;2023-05-20T10:28:31;8.30;;;7.60;;
18360;SDS011;9308;48.550;9.108;2023-05-20T10:30:58;9.03;;;8.33;;
18360;SDS011;9308;48.550;9.108;2023-05-20T10:33:28;8.67;;;7.97;;
18360;SDS011;9308;48.550;9.108;2023-05-20T10:35:57;8.17;;;7.53;;
18360;SDS011;9308;48.550;9.108;2023-05-20T10:38:23;6.90;;;6.40;;
18360;SDS011;9308;48.550;9.108;2023-05-20T10:40:49;7.93;;;7.23;;
18360;SDS011;9308;48.550;9.108;2023-05-20T10:43:16;7.20;;;6.50;;
18360;SDS011;9308;48.550;9.108;2023-05-20T10:45:51;7.20;;;6.60;;
18360;SDS011;9308;48.550;9.108;2023-05-20T10:48:40;7.50;;;6.90;;
18360;SDS011;9308;48.550;9.108;2023-05-20T10:51:09;7.90;;;7.20;;
18360;SDS011;9308;48.550;9.108;2023-05-20T10:53:39;7.27;;;6.77;;
18360;SDS011;9308;48.550;9.108;2023-05-20T10:56:05;7.70;;;7.10;;
18360;SDS011;9308;48.550;9.108;2023-05-20T10:58:41;7.20;;;6.70;;
18360;SDS011;9308;48.550;9.108;2023-05-20T11:01:06;7.60;;;7.00;;
18360;SDS011;9308;48.550;9.108;2023-05-20T11:03:32;7.23;;;6.63;;
18360;SDS011;9308;48.550;9.108;2023-05-20T11:05:59;7.47;;;6.87;;
18360;SDS011;9308;48.550;9.108;2023-05-20T11:08:28;8.13;;;7.53;;
18360;SDS011;9308;48.550;9.108;2023-05-20T11:10:55;7.23;;;6.73;;
18360;SDS011;9308;48.550;9.108;2023-05-20T11:13:21;7.13;;;6.63;;
18360;SDS011;9308;48.550;9.108;2023-05-20T11:15:47;7.37;;;6.77;;
18360;SDS011;9308;48.550;9.108;2023-05-20T11:18:13;6.73;;;6.23;;
18360;SDS011;9308;48.550;9.108;2023-05-20T11:20:39;7.33;;;6.73;;
18360;SDS011;9308;48.550;9.108;2023-05-20T11:23:05;7.10;;;6.50;;
18360;SDS011;9308;48.550;9.108;2023-05-20T11:25:36;7.33;;;6.70;;
18360;SDS011;9308;48.550;9.108;2023-05-20T11:28:01;6.83;;;6.33;;
18360;SDS011;9308;48.550;9.108;2023-05-20T11:30:27;7.70;;;6.97;;
18360;SDS011;9308;48.550;9.108;2023-05-20T11:33:01;6.73;;;6.20;;
18360;SDS011;9308;48.550;9.108;2023-05-20T11:35:29;7.43;;;6.83;;
18360;SDS011;9308;48.550;9.108;2023-05-20T11:37:57;8.00;;;7.30;;
18360;SDS011;9308;48.550;9.108;2023-05-20T11:40:26;7.50;;;6.80;;
18360;SDS011;9308;48.550;9.108;2023-05-20T11:42:53;7.53;;;6.87;;
18360;SDS011;9308;48.550;9.108;2023-05-20T11:45:19;6.97;;;6.43;;
18360;SDS011;9308;48.550;9.108;2023-05-20T11:47:45;6.13;;;5.73;;
18360;SDS011;9308;48.550;9.108;2023-05-20T11:50:15;6.50;;;6.00;;
18360;SDS011;9308;48.550;9.108;2023-05-20T11:52:41;6.50;;;6.00;;
18360;SDS011;9308;48.550;9.108;2023-05-20T11:55:10;6.43;;;5.93;;
18360;SDS011;9308;48.550;9.108;2023-05-20T11:57:36;6.73;;;6.07;;
18360;SDS011;9308;48.550;9.108;2023-05-20T12:00:02;6.37;;;5.87;;
18360;SDS011;9308;48.550;9.108;2023-05-20T12:02:31;6.23;;;5.83;;
18360;SDS011;9308;48.550;9.108;2023-05-20T12:04:56;6.90;;;6.30;;
18360;SDS011;9308;48.550;9.108;2023-05-20T12:07:22;7.23;;;6.53;;
18360;SDS011;9308;48.550;9.108;2023-05-20T12:09:47;6.30;;;5.80;;
18360;SDS011;9308;48.550;9.108;2023-05-20T12:12:13;6.67;;;6.07;;
18360;SDS011;9308;48.550;9.108;2023-05-20T12:14:38;6.40;;;5.90;;
18360;SDS011;9308;48.550;9.108;2023-05-20T12:17:04;6.70;;;6.20;;
18360;SDS011;9308;48.550;9.108;2023-05-20T12:19:29;6.27;;;5.83;;
18360;SDS011;9308;48.550;9.108;2023-05-20T12:21:55;6.17;;;5.67;;
18360;SDS011;9308;48.550;9.108;2023-05-20T12:24:20;6.03;;;5.53;;
18360;SDS011;9308;48.550;9.108;2023-05-20T12:26:45;6.70;;;6.20;;
18360;SDS011;9308;48.550;9.108;2023-05-20T12:29:11;7.00;;;6.50;;
18360;SDS011;9308;48.550;9.108;2023-05-20T12:31:37;6.90;;;6.33;;
18360;SDS011;9308;48.550;9.108;2023-05-20T12:34:02;6.93;;;6.43;;
18360;SDS011;9308;48.550;9.108;2023-05-20T12:36:28;6.50;;;5.90;;
18360;SDS011;9308;48.550;9.108;2023-05-20T12:38:53;6.83;;;6.23;;
18360;SDS011;9308;48.550;9.108;2023-05-20T12:41:19;6.53;;;6.03;;
18360;SDS011;9308;48.550;9.108;2023-05-20T12:43:44;6.07;;;5.57;;
18360;SDS011;9308;48.550;9.108;2023-05-20T12:46:09;5.90;;;5.40;;
18360;SDS011;9308;48.550;9.108;2023-05-20T12:48:35;12.43;;;6.20;;
18360;SDS011;9308;48.550;9.108;2023-05-20T12:51:00;10.23;;;6.47;;
18360;SDS011;9308;48.550;9.108;2023-05-20T12:53:26;6.77;;;6.00;;
18360;SDS011;9308;48.550;9.108;2023-05-20T12:55:51;6.23;;;5.73;;
18360;SDS011;9308;48.550;9.108;2023-05-20T12:58:17;7.20;;;5.40;;
18360;SDS011;9308;48.550;9.108;2023-05-20T13:00:42;7.10;;;6.43;;
18360;SDS011;9308;48.550;9.108;2023-05-20T13:03:08;6.00;;;5.50;;
18360;SDS011;9308;48.550;9.108;2023-05-20T13:05:33;6.10;;;5.60;;
18360;SDS011;9308;48.550;9.108;2023-05-20T13:07:58;6.27;;;5.70;;
18360;SDS011;9308;48.550;9.108;2023-05-20T13:10:24;5.80;;;5.33;;
18360;SDS011;9308;48.550;9.108;2023-05-20T13:12:50;5.77;;;5.37;;
18360;SDS011;9308;48.550;9.108;2023-05-20T13:15:15;6.17;;;5.67;;
18360;SDS011;9308;48.550;9.108;2023-05-20T13:17:41;5.40;;;5.00;;
18360;SDS011;9308;48.550;9.108;2023-05-20T13:20:07;6.03;;;5.50;;
18360;SDS011;9308;48.550;9.108;2023-05-20T13:22:33;6.17;;;5.67;;
18360;SDS011;9308;48.550;9.108;2023-05-20T13:24:59;6.00;;;5.60;;
18360;SDS011;9308;48.550;9.108;2023-05-20T13:27:24;5.93;;;5.43;;
18360;SDS011;9308;48.550;9.108;2023-05-20T13:29:50;5.50;;;5.10;;
18360;SDS011;9308;48.550;9.108;2023-05-20T13:32:16;6.70;;;6.10;;
18360;SDS011;9308;48.550;9.108;2023-05-20T13:34:41;6.30;;;5.70;;
18360;SDS011;9308;48.550;9.108;2023-05-20T13:37:07;6.50;;;5.33;;
18360;SDS011;9308;48.550;9.108;2023-05-20T13:39:32;5.83;;;5.43;;
18360;SDS011;9308;48.550;9.108;2023-05-20T13:41:58;5.40;;;5.00;;
18360;SDS011;9308;48.550;9.108;2023-05-20T13:44:23;5.13;;;4.73;;
18360;SDS011;9308;48.550;9.108;2023-05-20T13:46:49;6.60;;;6.10;;
18360;SDS011;9308;48.550;9.108;2023-05-20T13:49:14;6.50;;;6.00;;
18360;SDS011;9308;48.550;9.108;2023-05-20T13:51:40;6.13;;;5.63;;
18360;SDS011;9308;48.550;9.108;2023-05-20T13:54:05;5.80;;;5.40;;
18360;SDS011;9308;48.550;9.108;2023-05-20T13:56:31;6.17;;;5.57;;
18360;SDS011;9308;48.550;9.108;2023-05-20T13:58:56;5.70;;;5.20;;
18360;SDS011;9308;48.550;9.108;2023-05-20T14:01:22;5.50;;;5.00;;
18360;SDS011;9308;48.550;9.108;2023-05-20T14:03:47;6.00;;;5.40;;
18360;SDS011;9308;48.550;9.108;2023-05-20T14:06:13;5.50;;;5.10;;
18360;SDS011;9308;48.550;9.108;2023-05-20T14:08:42;5.13;;;4.80;;
18360;SDS011;9308;48.550;9.108;2023-05-20T14:11:11;5.73;;;5.20;;
18360;SDS011;9308;48.550;9.108;2023-05-20T14:13:36;5.70;;;5.20;;
18360;SDS011;9308;48.550;9.108;2023-05-20T14:16:02;5.43;;;5.03;;
18360;SDS011;9308;48.550;9.108;2023-05-20T14:18:27;5.13;;;4.73;;
18360;SDS011;9308;48.550;9.108;2023-05-20T14:20:53;5.37;;;4.97;;
18360;SDS011;9308;48.550;9.108;2023-05-20T14:23:18;5.40;;;5.00;;
18360;SDS011;9308;48.550;9.108;2023-05-20T14:25:44;5.20;;;4.80;;
18360;SDS011;9308;48.550;9.108;2023-05-20T14:28:09;5.33;;;4.93;;
18360;SDS011;9308;48.550;9.108;2023-05-20T14:30:34;5.10;;;4.70;;
18360;SDS011;9308;48.550;9.108;2023-05-20T14:33:00;4.50;;;4.20;;
18360;SDS011;9308;48.550;9.108;2023-05-20T14:35:25;4.87;;;4.43;;
18360;SDS011;9308;48.550;9.108;2023-05-20T14:37:51;4.37;;;4.00;;
18360;SDS011;9308;48.550;9.108;2023-05-20T14:40:17;4.40;;;4.00;;
18360;SDS011;9308;48.550;9.108;2023-05-20T14:42:42;5.23;;;4.83;;
18360;SDS011;9308;48.550;9.108;2023-05-20T14:45:08;4.77;;;4.47;;
18360;SDS011;9308;48.550;9.108;2023-05-20T14:47:34;4.60;;;4.20;;
18360;SDS011;9308;48.550;9.108;2023-05-20T14:50:00;4.70;;;4.40;;
18360;SDS011;9308;48.550;9.108;2023-05-20T14:52:25;5.40;;;4.97;;
18360;SDS011;9308;48.550;9.108;2023-05-20T14:54:50;4.90;;;4.50;;
18360;SDS011;9308;48.550;9.108;2023-05-20T14:57:16;5.77;;;4.93;;
18360;SDS011;9308;48.550;9.108;2023-05-20T14:59:41;4.80;;;4.50;;
18360;SDS011;9308;48.550;9.108;2023-05-20T15:02:07;5.30;;;4.90;;
18360;SDS011;9308;48.550;9.108;2023-05-20T15:04:33;4.80;;;4.33;;
18360;SDS011;9308;48.550;9.108;2023-05-20T15:06:58;4.80;;;4.40;;